sensor_id;sensor_type;location;lat;lon;timestamp;P1;durP1;ratioP1;P2;durP2;ratioP2
8413;SDS011;4244;48.684;9.028;2022-11-13T00:00:04;22.60;;;18.30;;
8413;SDS011;4244;48.684;9.028;2022-11-13T00:02:31;22.07;;;18.70;;
8413;SDS011;4244;48.684;9.028;2022-11-13T00:04:58;21.53;;;18.07;;
8413;SDS011;4244;48.684;9.028;2022-11-13T00:07:24;21.93;;;18.67;;
8413;SDS011;4244;48.684;9.028;2022-11-13T00:09:49;26.03;;;20.10;;
8413;SDS011;4244;48.684;9.028;2022-11-13T00:12:15;25.83;;;19.20;;
8413;SDS011;4244;48.684;9.028;2022-11-13T00:14:40;21.60;;;19.30;;
8413;SDS011;4244;48.684;9.028;2022-11-13T00:17:06;23.63;;;19.40;;
8413;SDS011;4244;48.684;9.028;2022-11-13T00:19:31;23.13;;;18.70;;
8413;SDS011;4244;48.684;9.028;2022-11-13T00:21:57;23.87;;;19.07;;
8413;SDS011;4244;48.684;9.028;2022-11-13T00:24:24;22.13;;;19.40;;
8413;SDS011;4244;48.684;9.028;2022-11-13T00:26:49;20.40;;;17.03;;
8413;SDS011;4244;48.684;9.028;2022-11-13T00:29:15;24.40;;;18.77;;
8413;SDS011;4244;48.684;9.028;2022-11-13T00:31:41;24.10;;;18.63;;
8413;SDS011;4244;48.684;9.028;2022-11-13T00:34:07;21.70;;;18.43;;
8413;SDS011;4244;48.684;9.028;2022-11-13T00:36:34;19.00;;;16.90;;
8413;SDS011;4244;48.684;9.028;2022-11-13T00:39:00;21.53;;;18.07;;
8413;SDS011;4244;48.684;9.028;2022-11-13T00:41:26;19.50;;;15.90;;
8413;SDS011;4244;48.684;9.028;2022-11-13T00:43:52;17.27;;;15.57;;
8413;SDS011;4244;48.684;9.028;2022-11-13T00:46:17;20.53;;;17.27;;
8413;SDS011;4244;48.684;9.028;2022-11-13T00:48:43;19.37;;;17.37;;
8413;SDS011;4244;48.684;9.028;2022-11-13T00:51:09;17.97;;;16.00;;
8413;SDS011;4244;48.684;9.028;2022-11-13T00:53:35;19.63;;;16.57;;
8413;SDS011;4244;48.684;9.028;2022-11-13T00:56:01;18.57;;;16.67;;
8413;SDS011;4244;48.684;9.028;2022-11-13T00:58:26;20.07;;;18.00;;
8413;SDS011;4244;48.684;9.028;2022-11-13T01:00:52;18.60;;;16.33;;
8413;SDS011;4244;48.684;9.028;2022-11-13T01:03:18;18.30;;;16.50;;
8413;SDS011;4244;48.684;9.028;2022-11-13T01:05:44;18.60;;;16.70;;
8413;SDS011;4244;48.684;9.028;2022-11-13T01:08:14;17.57;;;15.63;;
8413;SDS011;4244;48.684;9.028;2022-11-13T01:10:42;16.50;;;14.87;;
8413;SDS011;4244;48.684;9.028;2022-11-13T01:13:09;17.97;;;15.83;;
8413;SDS011;4244;48.684;9.028;2022-11-13T01:15:39;19.20;;;14.67;;
8413;SDS011;4244;48.684;9.028;2022-11-13T01:18:05;18.87;;;15.53;;
8413;SDS011;4244;48.684;9.028;2022-11-13T01:20:31;17.40;;;14.90;;
8413;SDS011;4244;48.684;9.028;2022-11-13T01:22:57;20.17;;;16.70;;
8413;SDS011;4244;48.684;9.028;2022-11-13T01:25:23;19.67;;;16.87;;
8413;SDS011;4244;48.684;9.028;2022-11-13T01:27:48;17.10;;;14.90;;
8413;SDS011;4244;48.684;9.028;2022-11-13T01:30:14;17.03;;;14.60;;
8413;SDS011;4244;48.684;9.028;2022-11-13T01:32:40;16.60;;;14.80;;
8413;SDS011;4244;48.684;9.028;2022-11-13T01:35:07;16.60;;;14.80;;
8413;SDS011;4244;48.684;9.028;2022-11-13T01:37:33;16.17;;;13.73;;
8413;SDS011;4244;48.684;9.028;2022-11-13T01:39:58;16.50;;;14.77;;
8413;SDS011;4244;48.684;9.028;2022-11-13T01:42:24;17.03;;;15.23;;
8413;SDS011;4244;48.684;9.028;2022-11-13T01:44:51;18.23;;;16.00;;
8413;SDS011;4244;48.684;9.028;2022-11-13T01:47:18;17.70;;;15.00;;
8413;SDS011;4244;48.684;9.028;2022-11-13T01:49:46;19.07;;;17.10;;
8413;SDS011;4244;48.684;9.028;2022-11-13T01:52:13;17.13;;;14.50;;
8413;SDS011;4244;48.684;9.028;2022-11-13T01:54:46;18.20;;;15.40;;
8413;SDS011;4244;48.684;9.028;2022-11-13T01:57:16;15.97;;;14.07;;
8413;SDS011;4244;48.684;9.028;2022-11-13T01:59:44;16.50;;;14.80;;
8413;SDS011;4244;48.684;9.028;2022-11-13T02:02:13;16.57;;;14.80;;
8413;SDS011;4244;48.684;9.028;2022-11-13T02:04:38;16.20;;;14.20;;
8413;SDS011;4244;48.684;9.028;2022-11-13T02:07:08;15.67;;;13.80;;
8413;SDS011;4244;48.684;9.028;2022-11-13T02:09:37;16.30;;;14.60;;
8413;SDS011;4244;48.684;9.028;2022-11-13T02:12:07;15.60;;;14.00;;
8413;SDS011;4244;48.684;9.028;2022-11-13T02:14:37;14.83;;;12.90;;
8413;SDS011;4244;48.684;9.028;2022-11-13T02:17:05;16.10;;;14.50;;
8413;SDS011;4244;48.684;9.028;2022-11-13T02:19:37;13.77;;;12.37;;
8413;SDS011;4244;48.684;9.028;2022-11-13T02:25:00;14.77;;;11.80;;
8413;SDS011;4244;48.684;9.028;2022-11-13T02:32:41;13.60;;;11.40;;
8413;SDS011;4244;48.684;9.028;2022-11-13T02:35:09;13.17;;;11.17;;
8413;SDS011;4244;48.684;9.028;2022-11-13T02:37:35;13.17;;;11.87;;
8413;SDS011;4244;48.684;9.028;2022-11-13T02:40:01;13.57;;;12.17;;
8413;SDS011;4244;48.684;9.028;2022-11-13T02:42:29;12.60;;;11.17;;
8413;SDS011;4244;48.684;9.028;2022-11-13T02:44:54;11.47;;;10.37;;
8413;SDS011;4244;48.684;9.028;2022-11-13T02:47:20;12.90;;;11.60;;
8413;SDS011;4244;48.684;9.028;2022-11-13T02:49:45;13.93;;;11.47;;
8413;SDS011;4244;48.684;9.028;2022-11-13T02:52:11;12.90;;;11.60;;
8413;SDS011;4244;48.684;9.028;2022-11-13T02:54:36;11.73;;;10.53;;
8413;SDS011;4244;48.684;9.028;2022-11-13T02:57:02;11.60;;;10.40;;
8413;SDS011;4244;48.684;9.028;2022-11-13T02:59:28;11.13;;;10.03;;
8413;SDS011;4244;48.684;9.028;2022-11-13T03:01:53;12.07;;;10.87;;
8413;SDS011;4244;48.684;9.028;2022-11-13T03:04:19;12.50;;;10.67;;
8413;SDS011;4244;48.684;9.028;2022-11-13T03:06:45;12.10;;;10.90;;
8413;SDS011;4244;48.684;9.028;2022-11-13T03:09:10;11.47;;;10.10;;
8413;SDS011;4244;48.684;9.028;2022-11-13T03:11:36;11.07;;;9.97;;
8413;SDS011;4244;48.684;9.028;2022-11-13T03:14:01;12.60;;;10.60;;
8413;SDS011;4244;48.684;9.028;2022-11-13T03:16:27;11.57;;;10.37;;
8413;SDS011;4244;48.684;9.028;2022-11-13T03:18:54;11.20;;;10.10;;
8413;SDS011;4244;48.684;9.028;2022-11-13T03:21:20;12.30;;;11.10;;
8413;SDS011;4244;48.684;9.028;2022-11-13T03:23:46;13.10;;;11.30;;
8413;SDS011;4244;48.684;9.028;2022-11-13T03:26:14;13.47;;;10.77;;
8413;SDS011;4244;48.684;9.028;2022-11-13T03:28:41;12.67;;;11.20;;
8413;SDS011;4244;48.684;9.028;2022-11-13T03:31:07;11.20;;;10.03;;
8413;SDS011;4244;48.684;9.028;2022-11-13T03:33:33;11.47;;;10.37;;
8413;SDS011;4244;48.684;9.028;2022-11-13T03:35:58;11.20;;;10.10;;
8413;SDS011;4244;48.684;9.028;2022-11-13T03:38:24;12.87;;;11.57;;
8413;SDS011;4244;48.684;9.028;2022-11-13T03:40:50;12.00;;;10.23;;
8413;SDS011;4244;48.684;9.028;2022-11-13T03:43:16;12.07;;;10.87;;
8413;SDS011;4244;48.684;9.028;2022-11-13T03:45:44;11.10;;;10.00;;
8413;SDS011;4244;48.684;9.028;2022-11-13T03:48:11;11.90;;;10.50;;
8413;SDS011;4244;48.684;9.028;2022-11-13T03:50:38;12.70;;;11.07;;
8413;SDS011;4244;48.684;9.028;2022-11-13T03:53:04;11.47;;;10.27;;
8413;SDS011;4244;48.684;9.028;2022-11-13T03:55:29;12.73;;;10.77;;
8413;SDS011;4244;48.684;9.028;2022-11-13T03:57:55;12.70;;;10.73;;
8413;SDS011;4244;48.684;9.028;2022-11-13T04:00:21;11.83;;;10.63;;
8413;SDS011;4244;48.684;9.028;2022-11-13T04:02:46;12.10;;;10.83;;
8413;SDS011;4244;48.684;9.028;2022-11-13T04:05:12;12.03;;;10.73;;
8413;SDS011;4244;48.684;9.028;2022-11-13T04:07:37;12.47;;;11.17;;
8413;SDS011;4244;48.684;9.028;2022-11-13T04:10:03;15.57;;;11.67;;
8413;SDS011;4244;48.684;9.028;2022-11-13T04:12:29;14.87;;;11.70;;
8413;SDS011;4244;48.684;9.028;2022-11-13T04:14:55;13.83;;;11.60;;
8413;SDS011;4244;48.684;9.028;2022-11-13T04:17:20;13.00;;;11.60;;
8413;SDS011;4244;48.684;9.028;2022-11-13T04:19:46;13.00;;;11.10;;
8413;SDS011;4244;48.684;9.028;2022-11-13T04:22:11;13.73;;;12.23;;
8413;SDS011;4244;48.684;9.028;2022-11-13T04:24:37;12.13;;;10.83;;
8413;SDS011;4244;48.684;9.028;2022-11-13T04:27:02;12.90;;;11.50;;
8413;SDS011;4244;48.684;9.028;2022-11-13T04:29:28;12.60;;;11.30;;
8413;SDS011;4244;48.684;9.028;2022-11-13T04:31:54;11.93;;;10.20;;
8413;SDS011;4244;48.684;9.028;2022-11-13T04:34:19;13.00;;;11.10;;
8413;SDS011;4244;48.684;9.028;2022-11-13T04:36:45;12.63;;;11.07;;
8413;SDS011;4244;48.684;9.028;2022-11-13T04:39:10;11.43;;;10.30;;
8413;SDS011;4244;48.684;9.028;2022-11-13T04:41:36;13.10;;;11.80;;
8413;SDS011;4244;48.684;9.028;2022-11-13T04:44:20;11.17;;;10.17;;
8413;SDS011;4244;48.684;9.028;2022-11-13T04:46:46;10.43;;;9.43;;
8413;SDS011;4244;48.684;9.028;2022-11-13T04:49:11;11.20;;;10.00;;
8413;SDS011;4244;48.684;9.028;2022-11-13T04:51:37;10.47;;;9.57;;
8413;SDS011;4244;48.684;9.028;2022-11-13T04:54:03;10.30;;;9.30;;
8413;SDS011;4244;48.684;9.028;2022-11-13T04:56:28;10.30;;;9.10;;
8413;SDS011;4244;48.684;9.028;2022-11-13T04:58:54;9.23;;;8.33;;
8413;SDS011;4244;48.684;9.028;2022-11-13T05:01:19;11.40;;;10.33;;
8413;SDS011;4244;48.684;9.028;2022-11-13T05:03:45;10.43;;;9.37;;
8413;SDS011;4244;48.684;9.028;2022-11-13T05:06:11;10.47;;;9.40;;
8413;SDS011;4244;48.684;9.028;2022-11-13T05:08:36;10.20;;;9.20;;
8413;SDS011;4244;48.684;9.028;2022-11-13T05:11:02;11.57;;;9.60;;
8413;SDS011;4244;48.684;9.028;2022-11-13T05:13:31;11.23;;;10.13;;
8413;SDS011;4244;48.684;9.028;2022-11-13T05:15:58;11.50;;;9.80;;
8413;SDS011;4244;48.684;9.028;2022-11-13T05:18:29;10.73;;;9.63;;
8413;SDS011;4244;48.684;9.028;2022-11-13T05:20:54;11.00;;;9.90;;
8413;SDS011;4244;48.684;9.028;2022-11-13T05:23:20;10.97;;;9.50;;
8413;SDS011;4244;48.684;9.028;2022-11-13T05:25:46;10.73;;;9.63;;
8413;SDS011;4244;48.684;9.028;2022-11-13T05:28:11;10.90;;;9.90;;
8413;SDS011;4244;48.684;9.028;2022-11-13T05:30:37;10.37;;;9.33;;
8413;SDS011;4244;48.684;9.028;2022-11-13T05:33:02;11.00;;;9.80;;
8413;SDS011;4244;48.684;9.028;2022-11-13T05:35:28;11.10;;;10.00;;
8413;SDS011;4244;48.684;9.028;2022-11-13T05:37:54;9.70;;;8.80;;
8413;SDS011;4244;48.684;9.028;2022-11-13T05:40:19;10.33;;;9.30;;
8413;SDS011;4244;48.684;9.028;2022-11-13T05:42:45;10.40;;;9.33;;
8413;SDS011;4244;48.684;9.028;2022-11-13T05:45:10;11.20;;;10.00;;
8413;SDS011;4244;48.684;9.028;2022-11-13T05:47:36;10.07;;;9.07;;
8413;SDS011;4244;48.684;9.028;2022-11-13T05:50:02;10.87;;;9.77;;
8413;SDS011;4244;48.684;9.028;2022-11-13T05:52:28;10.97;;;9.70;;
8413;SDS011;4244;48.684;9.028;2022-11-13T05:54:53;10.17;;;9.17;;
8413;SDS011;4244;48.684;9.028;2022-11-13T05:57:19;10.43;;;9.13;;
8413;SDS011;4244;48.684;9.028;2022-11-13T05:59:44;10.10;;;9.07;;
8413;SDS011;4244;48.684;9.028;2022-11-13T06:02:10;10.53;;;9.43;;
8413;SDS011;4244;48.684;9.028;2022-11-13T06:04:36;10.47;;;9.37;;
8413;SDS011;4244;48.684;9.028;2022-11-13T06:07:01;10.73;;;9.73;;
8413;SDS011;4244;48.684;9.028;2022-11-13T06:09:27;10.50;;;9.50;;
8413;SDS011;4244;48.684;9.028;2022-11-13T06:11:52;9.87;;;8.97;;
8413;SDS011;4244;48.684;9.028;2022-11-13T06:14:18;11.10;;;10.00;;
8413;SDS011;4244;48.684;9.028;2022-11-13T06:16:44;10.20;;;9.30;;
8413;SDS011;4244;48.684;9.028;2022-11-13T06:19:10;10.00;;;9.10;;
8413;SDS011;4244;48.684;9.028;2022-11-13T06:21:38;10.53;;;9.53;;
8413;SDS011;4244;48.684;9.028;2022-11-13T06:24:04;9.77;;;8.87;;
8413;SDS011;4244;48.684;9.028;2022-11-13T06:26:31;12.90;;;11.77;;
8413;SDS011;4244;48.684;9.028;2022-11-13T06:28:58;11.37;;;10.27;;
8413;SDS011;4244;48.684;9.028;2022-11-13T06:31:29;11.87;;;10.67;;
8413;SDS011;4244;48.684;9.028;2022-11-13T06:33:56;13.43;;;12.00;;
8413;SDS011;4244;48.684;9.028;2022-11-13T06:36:25;13.77;;;12.37;;
8413;SDS011;4244;48.684;9.028;2022-11-13T06:38:52;13.53;;;12.10;;
8413;SDS011;4244;48.684;9.028;2022-11-13T06:41:18;12.73;;;11.43;;
8413;SDS011;4244;48.684;9.028;2022-11-13T06:43:46;13.80;;;12.30;;
8413;SDS011;4244;48.684;9.028;2022-11-13T06:46:13;12.83;;;11.50;;
8413;SDS011;4244;48.684;9.028;2022-11-13T06:48:40;12.50;;;11.20;;
8413;SDS011;4244;48.684;9.028;2022-11-13T06:51:06;13.40;;;12.10;;
8413;SDS011;4244;48.684;9.028;2022-11-13T06:53:33;12.17;;;10.97;;
8413;SDS011;4244;48.684;9.028;2022-11-13T06:55:59;11.00;;;9.90;;
8413;SDS011;4244;48.684;9.028;2022-11-13T06:58:25;11.63;;;10.43;;
8413;SDS011;4244;48.684;9.028;2022-11-13T07:00:51;11.63;;;10.50;;
8413;SDS011;4244;48.684;9.028;2022-11-13T07:03:18;10.40;;;9.50;;
8413;SDS011;4244;48.684;9.028;2022-11-13T07:05:45;10.27;;;9.37;;
8413;SDS011;4244;48.684;9.028;2022-11-13T07:08:11;10.90;;;9.80;;
8413;SDS011;4244;48.684;9.028;2022-11-13T07:10:37;10.33;;;9.43;;
8413;SDS011;4244;48.684;9.028;2022-11-13T07:13:03;10.30;;;9.40;;
8413;SDS011;4244;48.684;9.028;2022-11-13T07:15:32;9.93;;;9.03;;
8413;SDS011;4244;48.684;9.028;2022-11-13T07:18:01;11.17;;;10.03;;
8413;SDS011;4244;48.684;9.028;2022-11-13T07:20:28;10.27;;;9.27;;
8413;SDS011;4244;48.684;9.028;2022-11-13T07:22:54;10.90;;;9.90;;
8413;SDS011;4244;48.684;9.028;2022-11-13T07:25:21;10.63;;;9.60;;
8413;SDS011;4244;48.684;9.028;2022-11-13T07:27:46;10.20;;;9.27;;
8413;SDS011;4244;48.684;9.028;2022-11-13T07:30:12;10.40;;;9.30;;
8413;SDS011;4244;48.684;9.028;2022-11-13T07:32:37;9.90;;;9.00;;
8413;SDS011;4244;48.684;9.028;2022-11-13T07:35:03;10.20;;;9.20;;
8413;SDS011;4244;48.684;9.028;2022-11-13T07:37:29;10.70;;;9.77;;
8413;SDS011;4244;48.684;9.028;2022-11-13T07:39:55;12.03;;;10.90;;
8413;SDS011;4244;48.684;9.028;2022-11-13T07:42:20;11.73;;;10.53;;
8413;SDS011;4244;48.684;9.028;2022-11-13T07:44:46;12.77;;;11.57;;
8413;SDS011;4244;48.684;9.028;2022-11-13T07:47:12;11.90;;;10.67;;
8413;SDS011;4244;48.684;9.028;2022-11-13T07:49:37;11.40;;;10.30;;
8413;SDS011;4244;48.684;9.028;2022-11-13T07:52:03;12.63;;;11.43;;
8413;SDS011;4244;48.684;9.028;2022-11-13T07:54:29;10.93;;;9.80;;
8413;SDS011;4244;48.684;9.028;2022-11-13T07:56:54;10.77;;;9.73;;
8413;SDS011;4244;48.684;9.028;2022-11-13T07:59:20;10.70;;;9.80;;
8413;SDS011;4244;48.684;9.028;2022-11-13T08:01:45;11.27;;;10.17;;
8413;SDS011;4244;48.684;9.028;2022-11-13T08:04:11;12.37;;;11.20;;
8413;SDS011;4244;48.684;9.028;2022-11-13T08:06:37;12.63;;;11.53;;
8413;SDS011;4244;48.684;9.028;2022-11-13T08:09:02;11.83;;;10.77;;
8413;SDS011;4244;48.684;9.028;2022-11-13T08:11:28;12.90;;;11.70;;
8413;SDS011;4244;48.684;9.028;2022-11-13T08:13:54;12.83;;;11.63;;
8413;SDS011;4244;48.684;9.028;2022-11-13T08:16:20;12.13;;;11.03;;
8413;SDS011;4244;48.684;9.028;2022-11-13T08:18:47;10.97;;;9.90;;
8413;SDS011;4244;48.684;9.028;2022-11-13T08:21:13;12.60;;;11.47;;
8413;SDS011;4244;48.684;9.028;2022-11-13T08:23:39;12.70;;;11.50;;
8413;SDS011;4244;48.684;9.028;2022-11-13T08:26:06;12.73;;;11.63;;
8413;SDS011;4244;48.684;9.028;2022-11-13T08:28:32;12.40;;;11.20;;
8413;SDS011;4244;48.684;9.028;2022-11-13T08:30:58;10.33;;;9.43;;
8413;SDS011;4244;48.684;9.028;2022-11-13T08:33:23;11.20;;;10.30;;
8413;SDS011;4244;48.684;9.028;2022-11-13T08:35:56;10.90;;;10.00;;
8413;SDS011;4244;48.684;9.028;2022-11-13T08:38:23;11.70;;;10.73;;
8413;SDS011;4244;48.684;9.028;2022-11-13T08:40:49;11.03;;;10.13;;
8413;SDS011;4244;48.684;9.028;2022-11-13T08:43:15;9.63;;;8.83;;
8413;SDS011;4244;48.684;9.028;2022-11-13T08:45:41;8.90;;;8.20;;
8413;SDS011;4244;48.684;9.028;2022-11-13T08:48:09;7.67;;;7.07;;
8413;SDS011;4244;48.684;9.028;2022-11-13T08:50:34;8.43;;;7.73;;
8413;SDS011;4244;48.684;9.028;2022-11-13T08:53:00;9.07;;;8.37;;
8413;SDS011;4244;48.684;9.028;2022-11-13T08:55:26;8.20;;;7.60;;
8413;SDS011;4244;48.684;9.028;2022-11-13T08:57:52;7.73;;;7.10;;
8413;SDS011;4244;48.684;9.028;2022-11-13T09:00:18;8.40;;;7.70;;
8413;SDS011;4244;48.684;9.028;2022-11-13T09:02:44;8.13;;;7.53;;
8413;SDS011;4244;48.684;9.028;2022-11-13T09:05:09;7.33;;;6.83;;
8413;SDS011;4244;48.684;9.028;2022-11-13T09:07:35;7.93;;;7.33;;
8413;SDS011;4244;48.684;9.028;2022-11-13T09:10:01;7.90;;;7.40;;
8413;SDS011;4244;48.684;9.028;2022-11-13T09:12:27;8.60;;;7.90;;
8413;SDS011;4244;48.684;9.028;2022-11-13T09:14:52;7.73;;;7.20;;
8413;SDS011;4244;48.684;9.028;2022-11-13T09:17:18;7.53;;;7.00;;
8413;SDS011;4244;48.684;9.028;2022-11-13T09:19:45;8.27;;;7.67;;
8413;SDS011;4244;48.684;9.028;2022-11-13T09:22:10;8.00;;;7.40;;
8413;SDS011;4244;48.684;9.028;2022-11-13T09:24:36;8.40;;;7.80;;
8413;SDS011;4244;48.684;9.028;2022-11-13T09:27:02;9.10;;;8.40;;
8413;SDS011;4244;48.684;9.028;2022-11-13T09:29:27;8.80;;;8.20;;
8413;SDS011;4244;48.684;9.028;2022-11-13T09:31:53;7.50;;;7.00;;
8413;SDS011;4244;48.684;9.028;2022-11-13T09:34:20;8.57;;;7.93;;
8413;SDS011;4244;48.684;9.028;2022-11-13T09:36:46;8.30;;;7.70;;
8413;SDS011;4244;48.684;9.028;2022-11-13T09:39:14;8.00;;;7.40;;
8413;SDS011;4244;48.684;9.028;2022-11-13T09:41:43;8.17;;;7.57;;
8413;SDS011;4244;48.684;9.028;2022-11-13T09:44:17;8.00;;;7.30;;
8413;SDS011;4244;48.684;9.028;2022-11-13T09:46:50;6.87;;;6.37;;
8413;SDS011;4244;48.684;9.028;2022-11-13T09:49:25;7.60;;;7.00;;
8413;SDS011;4244;48.684;9.028;2022-11-13T09:52:01;6.97;;;6.47;;
8413;SDS011;4244;48.684;9.028;2022-11-13T09:54:30;6.80;;;6.30;;
8413;SDS011;4244;48.684;9.028;2022-11-13T10:05:20;5.30;;;4.90;;
8413;SDS011;4244;48.684;9.028;2022-11-13T10:12:50;5.17;;;4.80;;
8413;SDS011;4244;48.684;9.028;2022-11-13T10:15:17;4.80;;;4.50;;
8413;SDS011;4244;48.684;9.028;2022-11-13T10:17:51;4.87;;;4.47;;
8413;SDS011;4244;48.684;9.028;2022-11-13T10:20:35;5.20;;;4.80;;
8413;SDS011;4244;48.684;9.028;2022-11-13T10:25:46;4.83;;;4.33;;
8413;SDS011;4244;48.684;9.028;2022-11-13T10:28:19;4.93;;;4.53;;
8413;SDS011;4244;48.684;9.028;2022-11-13T10:30:47;5.60;;;5.20;;
8413;SDS011;4244;48.684;9.028;2022-11-13T10:33:14;5.27;;;4.87;;
8413;SDS011;4244;48.684;9.028;2022-11-13T10:35:56;6.07;;;5.60;;
8413;SDS011;4244;48.684;9.028;2022-11-13T10:38:31;6.03;;;5.60;;
8413;SDS011;4244;48.684;9.028;2022-11-13T10:41:03;6.00;;;5.50;;
8413;SDS011;4244;48.684;9.028;2022-11-13T10:46:19;5.70;;;5.20;;
8413;SDS011;4244;48.684;9.028;2022-11-13T10:48:50;5.20;;;4.83;;
8413;SDS011;4244;48.684;9.028;2022-11-13T10:51:21;6.13;;;5.70;;
8413;SDS011;4244;48.684;9.028;2022-11-13T10:53:49;5.73;;;5.33;;
8413;SDS011;4244;48.684;9.028;2022-11-13T10:58:59;5.80;;;5.40;;
8413;SDS011;4244;48.684;9.028;2022-11-13T11:01:26;5.23;;;4.83;;
8413;SDS011;4244;48.684;9.028;2022-11-13T11:03:53;5.50;;;5.10;;
8413;SDS011;4244;48.684;9.028;2022-11-13T11:06:19;6.70;;;6.20;;
8413;SDS011;4244;48.684;9.028;2022-11-13T11:08:44;5.60;;;5.20;;
8413;SDS011;4244;48.684;9.028;2022-11-13T11:11:17;5.40;;;5.00;;
8413;SDS011;4244;48.684;9.028;2022-11-13T11:16:40;5.27;;;4.97;;
8413;SDS011;4244;48.684;9.028;2022-11-13T11:19:09;4.97;;;4.67;;
8413;SDS011;4244;48.684;9.028;2022-11-13T11:21:36;5.33;;;4.93;;
8413;SDS011;4244;48.684;9.028;2022-11-13T11:27:21;5.87;;;5.47;;
8413;SDS011;4244;48.684;9.028;2022-11-13T11:30:01;5.00;;;4.70;;
8413;SDS011;4244;48.684;9.028;2022-11-13T11:32:39;5.40;;;5.07;;
8413;SDS011;4244;48.684;9.028;2022-11-13T11:37:58;4.90;;;4.60;;
8413;SDS011;4244;48.684;9.028;2022-11-13T11:45:56;5.03;;;4.70;;
8413;SDS011;4244;48.684;9.028;2022-11-13T11:48:25;6.10;;;5.70;;
8413;SDS011;4244;48.684;9.028;2022-11-13T11:56:22;5.70;;;5.30;;
8413;SDS011;4244;48.684;9.028;2022-11-13T12:07:40;4.70;;;4.30;;
8413;SDS011;4244;48.684;9.028;2022-11-13T12:10:17;5.17;;;4.77;;
8413;SDS011;4244;48.684;9.028;2022-11-13T12:26:42;5.13;;;4.73;;
8413;SDS011;4244;48.684;9.028;2022-11-13T12:34:29;4.50;;;4.17;;
8413;SDS011;4244;48.684;9.028;2022-11-13T12:36:58;4.80;;;4.40;;
8413;SDS011;4244;48.684;9.028;2022-11-13T12:39:41;4.87;;;4.40;;
8413;SDS011;4244;48.684;9.028;2022-11-13T12:42:58;4.43;;;4.13;;
8413;SDS011;4244;48.684;9.028;2022-11-13T12:50:38;4.87;;;4.57;;
8413;SDS011;4244;48.684;9.028;2022-11-13T12:53:11;4.27;;;3.97;;
8413;SDS011;4244;48.684;9.028;2022-11-13T12:55:38;4.87;;;4.47;;
8413;SDS011;4244;48.684;9.028;2022-11-13T12:58:26;5.00;;;4.70;;
8413;SDS011;4244;48.684;9.028;2022-11-13T13:00:53;4.43;;;4.03;;
8413;SDS011;4244;48.684;9.028;2022-11-13T13:14:40;4.20;;;3.90;;
8413;SDS011;4244;48.684;9.028;2022-11-13T13:19:43;4.27;;;3.97;;
8413;SDS011;4244;48.684;9.028;2022-11-13T13:22:10;4.73;;;4.43;;
8413;SDS011;4244;48.684;9.028;2022-11-13T13:24:56;4.17;;;3.87;;
8413;SDS011;4244;48.684;9.028;2022-11-13T13:27:24;4.50;;;4.20;;
8413;SDS011;4244;48.684;9.028;2022-11-13T13:29:51;4.50;;;4.20;;
8413;SDS011;4244;48.684;9.028;2022-11-13T13:32:20;4.00;;;3.70;;
8413;SDS011;4244;48.684;9.028;2022-11-13T13:38:06;3.97;;;3.67;;
8413;SDS011;4244;48.684;9.028;2022-11-13T13:43:33;5.10;;;4.60;;
8413;SDS011;4244;48.684;9.028;2022-11-13T13:46:25;4.27;;;3.87;;
8413;SDS011;4244;48.684;9.028;2022-11-13T13:48:55;4.13;;;3.83;;
8413;SDS011;4244;48.684;9.028;2022-11-13T13:51:27;4.03;;;3.63;;
8413;SDS011;4244;48.684;9.028;2022-11-13T13:53:55;3.50;;;3.20;;
8413;SDS011;4244;48.684;9.028;2022-11-13T13:56:23;8.40;;;4.03;;
8413;SDS011;4244;48.684;9.028;2022-11-13T13:58:49;4.63;;;3.20;;
8413;SDS011;4244;48.684;9.028;2022-11-13T14:01:24;6.43;;;4.63;;
8413;SDS011;4244;48.684;9.028;2022-11-13T14:06:53;4.10;;;3.80;;
8413;SDS011;4244;48.684;9.028;2022-11-13T14:09:21;5.30;;;3.27;;
8413;SDS011;4244;48.684;9.028;2022-11-13T14:12:01;4.10;;;3.80;;
8413;SDS011;4244;48.684;9.028;2022-11-13T14:14:28;4.60;;;4.20;;
8413;SDS011;4244;48.684;9.028;2022-11-13T14:16:58;4.27;;;3.97;;
8413;SDS011;4244;48.684;9.028;2022-11-13T14:19:25;4.40;;;4.00;;
8413;SDS011;4244;48.684;9.028;2022-11-13T14:21:51;4.90;;;4.50;;
8413;SDS011;4244;48.684;9.028;2022-11-13T14:24:20;4.63;;;4.23;;
8413;SDS011;4244;48.684;9.028;2022-11-13T14:26:47;4.80;;;4.40;;
8413;SDS011;4244;48.684;9.028;2022-11-13T14:29:25;4.50;;;4.10;;
8413;SDS011;4244;48.684;9.028;2022-11-13T14:32:12;4.47;;;4.07;;
8413;SDS011;4244;48.684;9.028;2022-11-13T14:35:18;5.37;;;4.50;;
8413;SDS011;4244;48.684;9.028;2022-11-13T14:37:45;4.30;;;4.00;;
8413;SDS011;4244;48.684;9.028;2022-11-13T14:42:51;4.67;;;4.27;;
8413;SDS011;4244;48.684;9.028;2022-11-13T14:48:16;5.30;;;4.80;;
8413;SDS011;4244;48.684;9.028;2022-11-13T14:50:47;4.53;;;4.13;;
8413;SDS011;4244;48.684;9.028;2022-11-13T14:58:42;4.63;;;4.33;;
8413;SDS011;4244;48.684;9.028;2022-11-13T15:03:40;4.60;;;4.20;;
8413;SDS011;4244;48.684;9.028;2022-11-13T15:06:52;4.30;;;4.00;;
8413;SDS011;4244;48.684;9.028;2022-11-13T15:09:00;5.40;;;4.90;;
8413;SDS011;4244;48.684;9.028;2022-11-13T15:11:26;6.23;;;5.73;;
8413;SDS011;4244;48.684;9.028;2022-11-13T15:13:54;5.60;;;5.03;;
8413;SDS011;4244;48.684;9.028;2022-11-13T15:16:21;5.33;;;4.83;;
8413;SDS011;4244;48.684;9.028;2022-11-13T15:18:53;5.67;;;5.27;;
8413;SDS011;4244;48.684;9.028;2022-11-13T15:21:29;6.50;;;6.00;;
8413;SDS011;4244;48.684;9.028;2022-11-13T15:23:55;5.57;;;5.00;;
8413;SDS011;4244;48.684;9.028;2022-11-13T15:26:21;6.07;;;5.57;;
8413;SDS011;4244;48.684;9.028;2022-11-13T15:28:48;5.93;;;5.03;;
8413;SDS011;4244;48.684;9.028;2022-11-13T15:31:19;5.27;;;4.87;;
8413;SDS011;4244;48.684;9.028;2022-11-13T15:33:46;5.73;;;5.23;;
8413;SDS011;4244;48.684;9.028;2022-11-13T15:36:12;5.50;;;5.10;;
8413;SDS011;4244;48.684;9.028;2022-11-13T15:38:38;6.60;;;6.10;;
8413;SDS011;4244;48.684;9.028;2022-11-13T15:41:07;6.20;;;5.60;;
8413;SDS011;4244;48.684;9.028;2022-11-13T15:43:40;5.83;;;5.33;;
8413;SDS011;4244;48.684;9.028;2022-11-13T15:46:14;6.40;;;5.90;;
8413;SDS011;4244;48.684;9.028;2022-11-13T15:48:45;6.30;;;5.70;;
8413;SDS011;4244;48.684;9.028;2022-11-13T15:54:04;6.90;;;6.30;;
8413;SDS011;4244;48.684;9.028;2022-11-13T15:56:34;6.17;;;5.57;;
8413;SDS011;4244;48.684;9.028;2022-11-13T15:59:00;6.00;;;5.40;;
8413;SDS011;4244;48.684;9.028;2022-11-13T16:01:25;6.17;;;5.67;;
8413;SDS011;4244;48.684;9.028;2022-11-13T16:03:51;6.50;;;5.90;;
8413;SDS011;4244;48.684;9.028;2022-11-13T16:06:18;6.83;;;6.23;;
8413;SDS011;4244;48.684;9.028;2022-11-13T16:08:45;9.07;;;8.17;;
8413;SDS011;4244;48.684;9.028;2022-11-13T16:11:14;8.93;;;8.10;;
8413;SDS011;4244;48.684;9.028;2022-11-13T16:13:41;9.00;;;8.20;;
8413;SDS011;4244;48.684;9.028;2022-11-13T16:16:18;9.20;;;8.37;;
8413;SDS011;4244;48.684;9.028;2022-11-13T16:18:49;8.90;;;8.00;;
8413;SDS011;4244;48.684;9.028;2022-11-13T16:21:15;9.50;;;8.50;;
8413;SDS011;4244;48.684;9.028;2022-11-13T16:23:42;9.43;;;8.53;;
8413;SDS011;4244;48.684;9.028;2022-11-13T16:26:15;9.90;;;8.87;;
8413;SDS011;4244;48.684;9.028;2022-11-13T16:28:43;9.17;;;8.33;;
8413;SDS011;4244;48.684;9.028;2022-11-13T16:31:08;9.50;;;8.60;;
8413;SDS011;4244;48.684;9.028;2022-11-13T16:33:34;9.53;;;8.53;;
8413;SDS011;4244;48.684;9.028;2022-11-13T16:36:00;9.50;;;8.60;;
8413;SDS011;4244;48.684;9.028;2022-11-13T16:38:26;10.67;;;9.67;;
8413;SDS011;4244;48.684;9.028;2022-11-13T16:40:51;10.57;;;9.57;;
8413;SDS011;4244;48.684;9.028;2022-11-13T16:43:17;10.67;;;9.67;;
8413;SDS011;4244;48.684;9.028;2022-11-13T16:45:42;10.27;;;9.33;;
8413;SDS011;4244;48.684;9.028;2022-11-13T16:48:13;12.13;;;9.80;;
8413;SDS011;4244;48.684;9.028;2022-11-13T16:50:40;10.57;;;9.57;;
8413;SDS011;4244;48.684;9.028;2022-11-13T16:53:06;10.27;;;9.20;;
8413;SDS011;4244;48.684;9.028;2022-11-13T16:55:33;11.00;;;9.83;;
8413;SDS011;4244;48.684;9.028;2022-11-13T16:58:00;11.30;;;10.10;;
8413;SDS011;4244;48.684;9.028;2022-11-13T17:00:25;12.03;;;10.73;;
8413;SDS011;4244;48.684;9.028;2022-11-13T17:02:53;10.30;;;9.30;;
8413;SDS011;4244;48.684;9.028;2022-11-13T17:05:19;11.07;;;9.27;;